Time;durP1;ratioP1;P1;durP2;ratioP2;P2;SDS_P1;SDS_P2;PMS_P1;PMS_P2;Temp;Humidity;BMP_temperature;BMP_pressure;BME280_temperature;BME280_humidity;BME280_pressure;Samples;Min_cycle;Max_cycle;Signal;HPM_P1;HPM_P2
2021/05/25 00:01:40;;;;;;;21.10;5.65;;;;;;;;;;5109418;28;20047;-65
2021/05/25 00:04:06;;;;;;;18.80;5.35;;;;;;;;;;5109519;28;20020;-65
2021/05/25 00:06:31;;;;;;;26.33;5.60;;;;;;;;;;5106974;28;20374;-65
2021/05/25 00:08:56;;;;;;;15.10;5.25;;;;;;;;;;5100931;28;20015;-65
2021/05/25 00:11:22;;;;;;;27.40;5.82;;;;;;;;;;5112476;28;20076;-65
2021/05/25 00:13:47;;;;;;;14.77;4.95;;;;;;;;;;5096221;28;20032;-65
2021/05/25 00:16:12;;;;;;;21.85;5.75;;;;;;;;;;5102332;28;20360;-65
2021/05/25 00:18:38;;;;;;;17.13;4.82;;;;;;;;;;5112030;28;20494;-65
2021/05/25 00:21:03;;;;;;;22.90;5.20;;;;;;;;;;5102488;28;20040;-65
2021/05/25 00:23:28;;;;;;;18.05;6.40;;;;;;;;;;5103426;28;20494;-65
2021/05/25 00:25:54;;;;;;;17.58;5.15;;;;;;;;;;5095803;28;20480;-65
2021/05/25 00:28:20;;;;;;;22.35;6.63;;;;;;;;;;5101567;28;20175;-65
2021/05/25 00:30:46;;;;;;;15.77;5.13;;;;;;;;;;5111000;28;20471;-65
2021/05/25 00:33:11;;;;;;;19.73;5.63;;;;;;;;;;5110488;28;20053;-65
2021/05/25 00:35:39;;;;;;;13.27;4.53;;;;;;;;;;5097207;28;20102;-65
2021/05/25 00:38:05;;;;;;;17.13;5.07;;;;;;;;;;5103858;28;20027;-65
2021/05/25 00:40:30;;;;;;;21.25;4.85;;;;;;;;;;5115037;28;20027;-65
2021/05/25 00:42:56;;;;;;;20.17;4.43;;;;;;;;;;5115054;28;20036;-66
2021/05/25 00:45:21;;;;;;;20.30;5.93;;;;;;;;;;5114838;28;20474;-65
2021/05/25 00:47:47;;;;;;;17.42;5.18;;;;;;;;;;5115120;28;20104;-65
2021/05/25 00:50:18;;;;;;;17.45;4.72;;;;;;;;;;5114842;28;21214;-63
2021/05/25 00:52:45;;;;;;;20.70;5.43;;;;;;;;;;5112775;28;20012;-63
2021/05/25 00:55:18;;;;;;;18.52;4.38;;;;;;;;;;5115056;28;20107;-63
2021/05/25 00:57:44;;;;;;;19.60;5.82;;;;;;;;;;5115024;28;20026;-65
2021/05/25 01:00:09;;;;;;;16.95;5.00;;;;;;;;;;5115148;28;20372;-65
2021/05/25 01:02:36;;;;;;;11.25;4.32;;;;;;;;;;5114956;28;20432;-65
2021/05/25 01:05:01;;;;;;;17.73;5.22;;;;;;;;;;5112991;28;20039;-65
2021/05/25 01:07:26;;;;;;;14.27;4.35;;;;;;;;;;5113403;28;20015;-65
2021/05/25 01:09:55;;;;;;;13.85;4.78;;;;;;;;;;5114568;28;20048;-65
2021/05/25 01:12:21;;;;;;;15.18;4.85;;;;;;;;;;5114542;28;20114;-66
2021/05/25 01:14:52;;;;;;;26.65;5.13;;;;;;;;;;5114198;28;20092;-65
2021/05/25 01:17:17;;;;;;;16.48;4.65;;;;;;;;;;5114960;28;20023;-65
2021/05/25 01:19:42;;;;;;;19.73;5.05;;;;;;;;;;5114507;28;20034;-65
2021/05/25 01:22:08;;;;;;;13.82;4.75;;;;;;;;;;5114837;28;20103;-64
2021/05/25 01:24:33;;;;;;;10.45;4.18;;;;;;;;;;5114777;28;20042;-64
2021/05/25 01:26:59;;;;;;;15.18;3.55;;;;;;;;;;5114112;28;20043;-64
2021/05/25 01:29:25;;;;;;;11.52;4.28;;;;;;;;;;5114184;28;20395;-66
2021/05/25 01:31:50;;;;;;;14.00;4.18;;;;;;;;;;5114756;28;20024;-65
2021/05/25 01:34:15;;;;;;;7.57;3.60;;;;;;;;;;5114284;28;20032;-65
2021/05/25 01:36:43;;;;;;;8.63;3.50;;;;;;;;;;5114600;28;20520;-65
2021/05/25 01:39:08;;;;;;;10.63;4.22;;;;;;;;;;5114424;28;20019;-66
2021/05/25 01:41:34;;;;;;;10.77;3.75;;;;;;;;;;5114503;28;20053;-66
2021/05/25 01:43:59;;;;;;;11.13;4.07;;;;;;;;;;5114441;28;20511;-66
2021/05/25 01:46:24;;;;;;;12.13;4.13;;;;;;;;;;5113959;28;20035;-65
2021/05/25 01:48:50;;;;;;;9.07;3.67;;;;;;;;;;5114329;28;20027;-66
2021/05/25 01:51:15;;;;;;;14.43;4.00;;;;;;;;;;5113825;28;20012;-65
2021/05/25 01:53:40;;;;;;;10.63;3.63;;;;;;;;;;5114373;28;20012;-66
2021/05/25 01:56:06;;;;;;;7.43;2.63;;;;;;;;;;5113797;28;20027;-66
2021/05/25 01:58:33;;;;;;;9.75;3.22;;;;;;;;;;5114099;28;20027;-65
2021/05/25 02:01:05;;;;;;;11.35;3.50;;;;;;;;;;5113634;28;20028;-65
2021/05/25 02:03:30;;;;;;;8.07;3.45;;;;;;;;;;5114211;28;20093;-66
2021/05/25 02:05:57;;;;;;;10.07;3.92;;;;;;;;;;5114033;28;20027;-66
2021/05/25 02:08:23;;;;;;;9.35;3.55;;;;;;;;;;5114089;28;20035;-65
2021/05/25 02:10:52;;;;;;;21.42;3.92;;;;;;;;;;5113322;28;20399;-66
2021/05/25 02:13:17;;;;;;;21.02;5.22;;;;;;;;;;5114032;28;20031;-66
2021/05/25 02:15:44;;;;;;;19.25;3.65;;;;;;;;;;5113547;28;20019;-66
2021/05/25 02:18:14;;;;;;;12.05;3.60;;;;;;;;;;5113944;28;20027;-66
2021/05/25 02:20:40;;;;;;;11.77;4.13;;;;;;;;;;5114031;28;20020;-66
2021/05/25 02:23:05;;;;;;;6.45;3.05;;;;;;;;;;5113971;28;20015;-66
2021/05/25 02:25:31;;;;;;;15.88;4.93;;;;;;;;;;5113636;28;20427;-66
2021/05/25 02:27:57;;;;;;;10.95;3.78;;;;;;;;;;5113662;28;20026;-66
2021/05/25 02:30:22;;;;;;;14.50;3.88;;;;;;;;;;5113694;28;20023;-66
2021/05/25 02:32:48;;;;;;;10.82;3.92;;;;;;;;;;5113769;28;20027;-65
2021/05/25 02:35:13;;;;;;;15.85;4.38;;;;;;;;;;5113552;28;20459;-66
2021/05/25 02:37:39;;;;;;;13.52;4.03;;;;;;;;;;5113760;28;20456;-66
2021/05/25 02:40:04;;;;;;;8.38;3.25;;;;;;;;;;5113452;28;20057;-66
2021/05/25 02:42:30;;;;;;;15.93;3.70;;;;;;;;;;5113673;28;20022;-66
2021/05/25 02:44:55;;;;;;;15.20;3.78;;;;;;;;;;5113996;28;20060;-66
2021/05/25 02:47:20;;;;;;;14.90;3.58;;;;;;;;;;5118153;28;20472;-66
2021/05/25 02:49:46;;;;;;;14.02;3.55;;;;;;;;;;5117408;28;20444;-66
2021/05/25 02:52:12;;;;;;;14.77;4.35;;;;;;;;;;5117854;28;20016;-66
2021/05/25 02:54:37;;;;;;;18.90;4.40;;;;;;;;;;5117635;28;20074;-66
2021/05/25 02:57:02;;;;;;;11.65;3.33;;;;;;;;;;5117458;28;20015;-66
2021/05/25 02:59:28;;;;;;;12.43;3.58;;;;;;;;;;5117595;28;20021;-66
2021/05/25 03:01:53;;;;;;;16.02;4.05;;;;;;;;;;5117570;28;20042;-66
2021/05/25 03:04:18;;;;;;;18.55;4.03;;;;;;;;;;5117427;28;20039;-66
2021/05/25 03:06:43;;;;;;;9.82;4.18;;;;;;;;;;5117483;28;20417;-66
2021/05/25 03:09:09;;;;;;;12.82;4.28;;;;;;;;;;5117344;28;20146;-66
2021/05/25 03:11:34;;;;;;;12.25;4.90;;;;;;;;;;5117311;28;20016;-66
2021/05/25 03:13:59;;;;;;;27.55;5.18;;;;;;;;;;5117454;28;20103;-66
2021/05/25 03:16:25;;;;;;;21.80;4.80;;;;;;;;;;5116920;28;20377;-66
2021/05/25 03:18:50;;;;;;;14.63;4.18;;;;;;;;;;5116930;28;20022;-66
2021/05/25 03:21:16;;;;;;;10.20;4.22;;;;;;;;;;5116936;28;20022;-66
2021/05/25 03:23:41;;;;;;;17.92;4.78;;;;;;;;;;5117235;28;20119;-65
2021/05/25 03:26:06;;;;;;;16.58;4.60;;;;;;;;;;5116937;28;20384;-66
2021/05/25 03:28:32;;;;;;;24.15;4.90;;;;;;;;;;5117103;28;20016;-66
2021/05/25 03:30:57;;;;;;;21.58;5.53;;;;;;;;;;5116897;28;20104;-66
2021/05/25 03:33:23;;;;;;;12.20;4.68;;;;;;;;;;5117003;28;20456;-66
2021/05/25 03:35:48;;;;;;;12.80;4.78;;;;;;;;;;5116871;28;20023;-65
2021/05/25 03:38:13;;;;;;;14.20;4.95;;;;;;;;;;5116712;28;20023;-66
2021/05/25 03:40:39;;;;;;;13.85;4.63;;;;;;;;;;5116687;28;20141;-66
2021/05/25 03:43:05;;;;;;;16.50;4.55;;;;;;;;;;5116967;28;20070;-66
2021/05/25 03:45:30;;;;;;;14.95;4.63;;;;;;;;;;5116257;28;20480;-66
2021/05/25 03:47:56;;;;;;;17.58;4.78;;;;;;;;;;5116996;28;20023;-66
2021/05/25 03:50:22;;;;;;;11.98;3.95;;;;;;;;;;5116303;28;20019;-65
2021/05/25 03:52:48;;;;;;;11.23;4.13;;;;;;;;;;5116648;28;20031;-65
2021/05/25 04:00:33;;;;;;;11.40;4.38;;;;;;;;;;5095640;28;20450;-65
2021/05/25 04:02:58;;;;;;;17.65;4.80;;;;;;;;;;5096005;28;20016;-65
2021/05/25 04:05:23;;;;;;;11.43;4.35;;;;;;;;;;5077690;28;20119;-65
2021/05/25 04:07:49;;;;;;;13.50;4.75;;;;;;;;;;5096219;28;20107;-66
2021/05/25 04:10:14;;;;;;;15.13;5.07;;;;;;;;;;5095892;28;20044;-65
2021/05/25 04:12:39;;;;;;;27.25;7.90;;;;;;;;;;5095811;28;20032;-66
2021/05/25 04:15:05;;;;;;;20.52;5.93;;;;;;;;;;5095703;28;20051;-65
2021/05/25 04:17:31;;;;;;;16.10;6.22;;;;;;;;;;5095569;28;20472;-66
2021/05/25 04:19:56;;;;;;;13.50;6.10;;;;;;;;;;5095590;28;20075;-66
2021/05/25 04:22:21;;;;;;;18.27;6.72;;;;;;;;;;5095697;28;20024;-66
2021/05/25 04:24:47;;;;;;;19.83;5.82;;;;;;;;;;5095631;28;20098;-66
2021/05/25 04:27:12;;;;;;;19.55;7.13;;;;;;;;;;5095466;28;20492;-66
2021/05/25 04:29:37;;;;;;;26.02;6.53;;;;;;;;;;5104980;28;20100;-65
2021/05/25 04:32:05;;;;;;;21.70;6.40;;;;;;;;;;5115861;28;20103;-65
2021/05/25 04:34:30;;;;;;;13.02;4.88;;;;;;;;;;5115636;28;20479;-66
2021/05/25 04:36:55;;;;;;;12.18;4.55;;;;;;;;;;5115318;28;20051;-65
2021/05/25 04:39:21;;;;;;;16.67;6.07;;;;;;;;;;5115834;28;20031;-65
2021/05/25 04:41:46;;;;;;;17.50;5.63;;;;;;;;;;5115593;28;20038;-66
2021/05/25 04:44:11;;;;;;;30.10;6.28;;;;;;;;;;5115660;28;20035;-65
2021/05/25 04:46:37;;;;;;;21.13;5.97;;;;;;;;;;5115374;28;20028;-65
2021/05/25 04:49:02;;;;;;;12.73;4.88;;;;;;;;;;5115547;28;20027;-66
2021/05/25 04:51:27;;;;;;;24.45;6.53;;;;;;;;;;5115439;28;20023;-66
2021/05/25 04:53:53;;;;;;;14.50;6.13;;;;;;;;;;5115331;28;20024;-65
2021/05/25 04:56:20;;;;;;;28.85;6.25;;;;;;;;;;5115320;28;20027;-65
2021/05/25 04:58:45;;;;;;;26.67;6.45;;;;;;;;;;5115394;28;20077;-66
2021/05/25 05:01:10;;;;;;;29.95;7.03;;;;;;;;;;5115257;28;20015;-66
2021/05/25 05:03:36;;;;;;;22.10;5.35;;;;;;;;;;5115236;28;20027;-65
2021/05/25 05:06:01;;;;;;;30.35;5.88;;;;;;;;;;5115047;28;20035;-66
2021/05/25 05:08:26;;;;;;;46.08;6.70;;;;;;;;;;5114744;28;20020;-66
2021/05/25 05:10:51;;;;;;;30.45;6.18;;;;;;;;;;5114502;28;20052;-66
2021/05/25 05:13:17;;;;;;;16.38;3.67;;;;;;;;;;5115116;28;20448;-65
2021/05/25 05:15:42;;;;;;;32.40;5.88;;;;;;;;;;5115204;28;20474;-66
2021/05/25 05:18:07;;;;;;;13.57;3.50;;;;;;;;;;5115281;28;20047;-65
2021/05/25 05:20:33;;;;;;;12.55;4.07;;;;;;;;;;5115133;28;20605;-65
2021/05/25 05:22:58;;;;;;;23.75;4.57;;;;;;;;;;5114830;28;20027;-66
2021/05/25 05:25:23;;;;;;;256.10;17.45;;;;;;;;;;5114733;28;20438;-66
2021/05/25 05:27:48;;;;;;;1162.95;58.08;;;;;;;;;;5114751;28;20020;-66
2021/05/25 05:30:14;;;;;;;1002.78;51.50;;;;;;;;;;5099899;28;20519;-66
2021/05/25 05:32:39;;;;;;;1396.28;66.53;;;;;;;;;;5094278;28;20032;-66
2021/05/25 05:35:06;;;;;;;1349.40;73.63;;;;;;;;;;5094185;28;20028;-64
2021/05/25 05:37:31;;;;;;;899.42;45.72;;;;;;;;;;5094246;28;20020;-64
2021/05/25 05:39:57;;;;;;;1583.72;75.85;;;;;;;;;;5093998;28;20084;-64
2021/05/25 05:42:22;;;;;;;1819.38;95.38;;;;;;;;;;5076078;28;20024;-64
2021/05/25 05:44:48;;;;;;;585.92;38.47;;;;;;;;;;5093812;28;20027;-65
2021/05/25 05:47:13;;;;;;;11.65;2.30;;;;;;;;;;5093815;28;20040;-65
2021/05/25 05:49:39;;;;;;;70.22;8.13;;;;;;;;;;5093962;28;20012;-65
2021/05/25 05:52:04;;;;;;;87.50;9.73;;;;;;;;;;5093837;28;20051;-64
2021/05/25 05:54:29;;;;;;;4.28;1.90;;;;;;;;;;5093929;28;20035;-64
2021/05/25 05:56:55;;;;;;;4.18;1.75;;;;;;;;;;5093683;28;20047;-64
2021/05/25 05:59:20;;;;;;;4.65;1.92;;;;;;;;;;5094034;28;20024;-64
2021/05/25 06:01:45;;;;;;;2.17;1.30;;;;;;;;;;5093406;28;20403;-65
2021/05/25 06:04:11;;;;;;;3.72;1.58;;;;;;;;;;5093673;28;20020;-64
2021/05/25 06:06:36;;;;;;;8.60;1.38;;;;;;;;;;5093793;28;20036;-64
2021/05/25 06:09:02;;;;;;;4.72;1.33;;;;;;;;;;5093801;28;20035;-65
2021/05/25 06:11:27;;;;;;;3.58;1.48;;;;;;;;;;5093510;28;20043;-65
2021/05/25 06:13:52;;;;;;;5.90;1.52;;;;;;;;;;5094030;28;20039;-65
2021/05/25 06:16:17;;;;;;;3.03;1.30;;;;;;;;;;5093140;28;20102;-65
2021/05/25 06:18:43;;;;;;;4.45;1.60;;;;;;;;;;5093193;28;20016;-65
2021/05/25 06:21:08;;;;;;;7.43;1.90;;;;;;;;;;5092663;28;20023;-65
2021/05/25 06:23:34;;;;;;;6.70;1.77;;;;;;;;;;5093522;28;20063;-65
2021/05/25 06:26:00;;;;;;;4.53;1.48;;;;;;;;;;5103373;28;20391;-65
2021/05/25 06:28:25;;;;;;;7.65;2.65;;;;;;;;;;5113838;28;20110;-65
2021/05/25 06:30:51;;;;;;;4.32;1.77;;;;;;;;;;5093666;28;20032;-65
2021/05/25 06:33:16;;;;;;;5.47;1.60;;;;;;;;;;5093389;28;20099;-65
2021/05/25 06:35:41;;;;;;;6.65;1.77;;;;;;;;;;5093285;28;20020;-65
2021/05/25 06:38:07;;;;;;;5.93;1.55;;;;;;;;;;5093629;28;20067;-65
2021/05/25 06:40:32;;;;;;;4.43;1.73;;;;;;;;;;5092900;28;20067;-65
2021/05/25 06:42:58;;;;;;;6.55;1.85;;;;;;;;;;5093000;28;20024;-65
2021/05/25 06:45:25;;;;;;;4.22;2.03;;;;;;;;;;5093062;28;20042;-65
2021/05/25 06:47:50;;;;;;;5.28;1.85;;;;;;;;;;5093269;28;20106;-66
2021/05/25 06:50:16;;;;;;;10.25;2.50;;;;;;;;;;5093049;28;20153;-65
2021/05/25 06:52:41;;;;;;;7.40;1.80;;;;;;;;;;5093116;28;20090;-65
2021/05/25 06:55:07;;;;;;;6.78;1.73;;;;;;;;;;5092618;28;20063;-64
2021/05/25 06:57:33;;;;;;;8.02;2.00;;;;;;;;;;5093181;28;20372;-65
2021/05/25 06:59:58;;;;;;;6.75;2.33;;;;;;;;;;5093063;28;20032;-65
2021/05/25 07:02:24;;;;;;;5.47;1.30;;;;;;;;;;5092989;28;20418;-65
2021/05/25 07:04:50;;;;;;;9.20;2.25;;;;;;;;;;5093079;28;20461;-65
2021/05/25 07:07:15;;;;;;;4.53;1.70;;;;;;;;;;5092854;28;20071;-65
2021/05/25 07:09:41;;;;;;;9.98;1.83;;;;;;;;;;5092717;28;20075;-65
2021/05/25 07:12:06;;;;;;;6.70;2.30;;;;;;;;;;5092717;28;20016;-65
2021/05/25 07:14:31;;;;;;;4.93;1.45;;;;;;;;;;5092966;28;20036;-65
2021/05/25 07:16:57;;;;;;;7.97;1.80;;;;;;;;;;5092786;28;20062;-65
2021/05/25 07:19:22;;;;;;;7.90;2.17;;;;;;;;;;5093026;28;20016;-65
2021/05/25 07:21:48;;;;;;;8.27;1.90;;;;;;;;;;5089601;28;20028;-66
2021/05/25 07:24:13;;;;;;;10.05;2.20;;;;;;;;;;5112858;28;20058;-65
2021/05/25 07:26:40;;;;;;;6.28;2.35;;;;;;;;;;5108825;28;20032;-67
2021/05/25 07:29:05;;;;;;;7.53;2.28;;;;;;;;;;5112180;28;20046;-67
2021/05/25 07:31:31;;;;;;;6.85;1.85;;;;;;;;;;5114063;28;20020;-68
2021/05/25 07:33:56;;;;;;;5.20;1.98;;;;;;;;;;5116492;28;20019;-67
2021/05/25 07:36:21;;;;;;;5.95;1.90;;;;;;;;;;5116207;28;20380;-67
2021/05/25 07:38:47;;;;;;;10.05;2.20;;;;;;;;;;5116227;28;20023;-67
2021/05/25 07:41:12;;;;;;;8.30;1.77;;;;;;;;;;5115195;28;20047;-67
2021/05/25 07:43:37;;;;;;;9.20;1.80;;;;;;;;;;5116298;28;20031;-68
2021/05/25 07:46:03;;;;;;;4.88;1.60;;;;;;;;;;5116070;28;20439;-67
2021/05/25 07:48:28;;;;;;;7.43;2.13;;;;;;;;;;5115408;28;20024;-68
2021/05/25 07:50:53;;;;;;;5.30;1.80;;;;;;;;;;5115641;28;20035;-67
2021/05/25 07:53:19;;;;;;;7.22;2.30;;;;;;;;;;5115420;28;20074;-68
2021/05/25 07:55:44;;;;;;;5.20;1.70;;;;;;;;;;5107985;28;20062;-65
2021/05/25 07:58:09;;;;;;;4.63;1.80;;;;;;;;;;5112234;28;20036;-66
2021/05/25 08:00:35;;;;;;;7.50;2.33;;;;;;;;;;5111444;28;20034;-65
2021/05/25 08:03:00;;;;;;;4.55;1.88;;;;;;;;;;5111905;28;20103;-65
2021/05/25 08:05:28;;;;;;;10.02;2.75;;;;;;;;;;5112297;28;20096;-65
2021/05/25 08:07:54;;;;;;;6.38;1.98;;;;;;;;;;5112592;28;20077;-65
2021/05/25 08:10:19;;;;;;;7.70;1.50;;;;;;;;;;5112053;28;20055;-65
2021/05/25 08:12:44;;;;;;;6.63;1.85;;;;;;;;;;5112266;28;20038;-65
2021/05/25 08:15:12;;;;;;;6.15;1.80;;;;;;;;;;5112419;28;20410;-65
2021/05/25 08:17:49;;;;;;;4.15;1.70;;;;;;;;;;5111931;28;20075;-65
2021/05/25 08:20:16;;;;;;;5.85;1.42;;;;;;;;;;5111467;28;20046;-65
2021/05/25 08:22:49;;;;;;;5.32;1.20;;;;;;;;;;5112356;28;20020;-65
2021/05/25 08:25:15;;;;;;;7.25;1.30;;;;;;;;;;5112497;28;20114;-64
2021/05/25 08:27:41;;;;;;;6.50;1.40;;;;;;;;;;5112826;28;20023;-67
2021/05/25 08:30:07;;;;;;;6.85;1.58;;;;;;;;;;5105343;28;20030;-66
2021/05/25 08:32:33;;;;;;;5.53;1.45;;;;;;;;;;5112677;28;20169;-66
2021/05/25 08:34:58;;;;;;;6.55;1.42;;;;;;;;;;5100267;28;20107;-66
2021/05/25 08:37:23;;;;;;;3.30;0.73;;;;;;;;;;5091895;28;20027;-66
2021/05/25 08:39:49;;;;;;;4.43;1.20;;;;;;;;;;5091971;28;20165;-66
2021/05/25 08:42:14;;;;;;;4.75;0.88;;;;;;;;;;5091424;28;20465;-66
2021/05/25 08:44:39;;;;;;;5.88;1.55;;;;;;;;;;5092297;28;20023;-66
2021/05/25 08:47:06;;;;;;;6.00;1.40;;;;;;;;;;5092165;28;20051;-66
2021/05/25 08:49:32;;;;;;;6.47;1.80;;;;;;;;;;5092406;28;20019;-66
2021/05/25 08:51:57;;;;;;;5.32;1.73;;;;;;;;;;5092394;28;20024;-65
2021/05/25 08:54:23;;;;;;;6.45;1.30;;;;;;;;;;5091714;28;20036;-66
2021/05/25 08:56:48;;;;;;;8.45;1.10;;;;;;;;;;5092243;28;20035;-65
2021/05/25 08:59:14;;;;;;;2.95;1.70;;;;;;;;;;5092835;28;20376;-66
2021/05/25 09:01:39;;;;;;;5.80;1.67;;;;;;;;;;5092065;28;20032;-66
2021/05/25 09:04:07;;;;;;;6.35;1.45;;;;;;;;;;5092042;28;20069;-66
2021/05/25 09:06:39;;;;;;;6.88;1.70;;;;;;;;;;5074102;28;20057;-67
2021/05/25 09:09:09;;;;;;;6.82;2.50;;;;;;;;;;5091450;28;20088;-66
2021/05/25 09:11:51;;;;;;;4.97;1.80;;;;;;;;;;5088651;28;20024;-67
2021/05/25 09:14:16;;;;;;;5.32;1.58;;;;;;;;;;5090556;28;20069;-67
2021/05/25 09:16:44;;;;;;;3.92;1.60;;;;;;;;;;5103480;28;20051;-67
2021/05/25 09:19:10;;;;;;;5.10;1.50;;;;;;;;;;5102560;28;20144;-67
2021/05/25 09:21:36;;;;;;;3.13;0.88;;;;;;;;;;5101486;28;20027;-67
2021/05/25 09:24:02;;;;;;;4.85;1.25;;;;;;;;;;5099923;28;20435;-66
2021/05/25 09:26:32;;;;;;;9.18;1.45;;;;;;;;;;5100807;28;20039;-66
2021/05/25 09:28:57;;;;;;;4.22;1.67;;;;;;;;;;5099966;28;20047;-66
2021/05/25 09:31:27;;;;;;;4.70;1.52;;;;;;;;;;5103252;28;20419;-66
2021/05/25 09:34:10;;;;;;;3.70;1.33;;;;;;;;;;5099091;28;20035;-67
2021/05/25 09:36:54;;;;;;;4.00;1.27;;;;;;;;;;5099459;28;20042;-67
2021/05/25 09:39:20;;;;;;;3.20;1.50;;;;;;;;;;5099557;28;20154;-67
2021/05/25 09:41:55;;;;;;;5.20;1.10;;;;;;;;;;5099937;28;20148;-67
2021/05/25 09:44:20;;;;;;;5.20;1.42;;;;;;;;;;5099433;28;20024;-64
2021/05/25 09:46:48;;;;;;;3.85;1.20;;;;;;;;;;5100028;28;20104;-64
2021/05/25 09:49:13;;;;;;;5.25;1.30;;;;;;;;;;5101603;28;20387;-63
2021/05/25 09:51:39;;;;;;;5.07;0.98;;;;;;;;;;5100200;28;20023;-67
2021/05/25 09:54:17;;;;;;;3.03;0.90;;;;;;;;;;5099635;28;20027;-66
2021/05/25 09:56:54;;;;;;;4.15;1.42;;;;;;;;;;5100026;28;20491;-66
2021/05/25 09:59:30;;;;;;;9.50;1.50;;;;;;;;;;5091498;28;20036;-65
2021/05/25 10:01:55;;;;;;;6.00;1.77;;;;;;;;;;5089449;28;20448;-66
2021/05/25 10:04:22;;;;;;;2.40;1.30;;;;;;;;;;5092368;28;20115;-67
2021/05/25 10:06:48;;;;;;;4.53;1.20;;;;;;;;;;5093127;28;20105;-66
2021/05/25 10:09:14;;;;;;;3.50;1.20;;;;;;;;;;5094293;28;20191;-67
2021/05/25 10:11:43;;;;;;;2.75;1.30;;;;;;;;;;5092683;28;20032;-67
2021/05/25 10:14:09;;;;;;;3.53;0.93;;;;;;;;;;5098522;28;20036;-66
2021/05/25 10:16:37;;;;;;;4.05;1.20;;;;;;;;;;5090509;28;20016;-66
2021/05/25 10:21:37;;;;;;;6.18;1.13;;;;;;;;;;5092263;28;20040;-66
2021/05/25 10:24:03;;;;;;;4.53;1.30;;;;;;;;;;5091724;28;20034;-66
2021/05/25 10:26:29;;;;;;;8.15;1.48;;;;;;;;;;5106382;28;20046;-66
2021/05/25 10:28:55;;;;;;;4.20;1.52;;;;;;;;;;5099456;28;20023;-67
2021/05/25 10:31:35;;;;;;;5.10;1.23;;;;;;;;;;5088344;28;20111;-67
2021/05/25 10:34:14;;;;;;;2.53;0.82;;;;;;;;;;5089618;28;20814;-66
2021/05/25 10:36:45;;;;;;;4.20;1.00;;;;;;;;;;5102018;28;20038;-66
2021/05/25 10:39:32;;;;;;;3.20;1.30;;;;;;;;;;5092779;28;20455;-66
2021/05/25 10:42:16;;;;;;;4.47;1.17;;;;;;;;;;5092947;28;20060;-66
2021/05/25 10:44:45;;;;;;;2.55;0.80;;;;;;;;;;5088855;28;20427;-66
2021/05/25 10:47:18;;;;;;;3.25;0.93;;;;;;;;;;5101585;28;20396;-66
2021/05/25 10:49:53;;;;;;;2.63;0.75;;;;;;;;;;5100366;28;20480;-66
2021/05/25 10:52:18;;;;;;;;;;;;;;;;;;5090295;28;20025;-66
2021/05/25 10:54:45;;;;;;;7.50;1.37;;;;;;;;;;5102819;28;20292;-66
2021/05/25 10:57:29;;;;;;;2.92;1.00;;;;;;;;;;5092268;28;20268;-66
2021/05/25 11:00:10;;;;;;;3.85;0.80;;;;;;;;;;5099395;28;20043;-66
2021/05/25 11:02:44;;;;;;;4.82;1.40;;;;;;;;;;5098053;28;20039;-66
2021/05/25 11:05:28;;;;;;;5.18;0.88;;;;;;;;;;5094832;28;20024;-66
2021/05/25 11:08:12;;;;;;;2.88;0.90;;;;;;;;;;5090134;28;20035;-66
2021/05/25 11:10:42;;;;;;;4.07;1.13;;;;;;;;;;5109615;28;20071;-66
2021/05/25 11:13:22;;;;;;;4.78;0.98;;;;;;;;;;5096863;28;20038;-66
2021/05/25 11:16:17;;;;;;;8.45;1.20;;;;;;;;;;5101696;28;20032;-66
2021/05/25 11:18:46;;;;;;;3.08;1.23;;;;;;;;;;5063157;28;20071;-66
2021/05/25 11:21:33;;;;;;;4.78;1.10;;;;;;;;;;5102670;28;20020;-67
2021/05/25 11:23:58;;;;;;;5.43;1.25;;;;;;;;;;5102644;28;20040;-66
2021/05/25 11:27:04;;;;;;;1.73;0.80;;;;;;;;;;5098178;28;20043;-67
2021/05/25 11:29:30;;;;;;;4.47;1.00;;;;;;;;;;5009399;28;20052;-66
2021/05/25 11:31:58;;;;;;;3.63;0.95;;;;;;;;;;5013435;28;20046;-66
2021/05/25 11:34:24;;;;;;;2.70;0.95;;;;;;;;;;5050583;28;20048;-65
2021/05/25 11:36:57;;;;;;;6.35;1.13;;;;;;;;;;5101858;28;20069;-66
2021/05/25 11:39:22;;;;;;;3.15;1.13;;;;;;;;;;5101767;28;20028;-66
2021/05/25 11:41:48;;;;;;;4.70;0.90;;;;;;;;;;5098551;28;20030;-66
2021/05/25 11:44:15;;;;;;;2.88;0.95;;;;;;;;;;5099236;28;20114;-66
2021/05/25 11:46:45;;;;;;;4.55;1.00;;;;;;;;;;5098030;28;20059;-65
2021/05/25 11:49:11;;;;;;;2.70;1.10;;;;;;;;;;5097679;28;20085;-65
2021/05/25 11:51:36;;;;;;;6.43;1.60;;;;;;;;;;5099372;28;20452;-64
2021/05/25 11:54:11;;;;;;;4.43;1.15;;;;;;;;;;5098471;28;20123;-65
2021/05/25 11:56:37;;;;;;;3.30;1.00;;;;;;;;;;5103346;28;20031;-64
2021/05/25 11:59:03;;;;;;;3.92;1.23;;;;;;;;;;5094130;28;20036;-64
2021/05/25 12:01:38;;;;;;;5.05;1.13;;;;;;;;;;5096329;28;20028;-64
2021/05/25 12:04:05;;;;;;;3.95;1.33;;;;;;;;;;5098314;28;20046;-64
2021/05/25 12:06:30;;;;;;;8.13;1.17;;;;;;;;;;5101129;28;20061;-64
2021/05/25 12:09:05;;;;;;;3.45;1.05;;;;;;;;;;5098864;28;20024;-65
2021/05/25 12:11:37;;;;;;;3.30;0.90;;;;;;;;;;5099289;28;20035;-65
2021/05/25 12:14:02;;;;;;;4.78;1.25;;;;;;;;;;5092313;28;20028;-65
2021/05/25 12:16:28;;;;;;;6.72;1.10;;;;;;;;;;5106187;28;20069;-65
2021/05/25 12:18:53;;;;;;;6.43;1.23;;;;;;;;;;5100362;28;20030;-65
2021/05/25 12:21:18;;;;;;;3.45;0.80;;;;;;;;;;5103396;28;20123;-66
2021/05/25 12:23:44;;;;;;;6.30;0.98;;;;;;;;;;5096179;28;20024;-66
2021/05/25 12:26:11;;;;;;;5.30;1.38;;;;;;;;;;5104434;28;20062;-65
2021/05/25 12:28:38;;;;;;;4.35;1.20;;;;;;;;;;5106444;28;20455;-65
2021/05/25 12:31:04;;;;;;;4.03;0.93;;;;;;;;;;5103295;28;20024;-65
2021/05/25 12:33:31;;;;;;;5.88;0.90;;;;;;;;;;5094483;28;20036;-65
2021/05/25 12:36:15;;;;;;;4.78;1.00;;;;;;;;;;5091074;28;20054;-64
2021/05/25 12:39:07;;;;;;;3.67;1.00;;;;;;;;;;5087221;28;20032;-65
2021/05/25 12:41:42;;;;;;;5.63;0.85;;;;;;;;;;5091593;28;20046;-65
2021/05/25 12:44:08;;;;;;;5.57;1.55;;;;;;;;;;5099062;28;20057;-65
2021/05/25 12:46:36;;;;;;;2.72;0.88;;;;;;;;;;5107171;28;20040;-66
2021/05/25 12:49:02;;;;;;;5.07;0.90;;;;;;;;;;5101329;28;20020;-65
2021/05/25 12:51:27;;;;;;;7.05;1.10;;;;;;;;;;5098879;28;20436;-65
2021/05/25 12:53:58;;;;;;;6.13;1.20;;;;;;;;;;5107368;28;20874;-66
2021/05/25 12:56:24;;;;;;;8.55;1.13;;;;;;;;;;5093903;28;20091;-65
2021/05/25 12:58:56;;;;;;;6.10;1.48;;;;;;;;;;5072451;28;20114;-65
2021/05/25 13:01:34;;;;;;;1.70;0.68;;;;;;;;;;5098136;28;20031;-66
2021/05/25 13:03:59;;;;;;;4.30;1.33;;;;;;;;;;5107758;28;20054;-65
2021/05/25 13:06:31;;;;;;;3.72;1.02;;;;;;;;;;5091528;28;20496;-66
2021/05/25 13:09:09;;;;;;;5.88;1.05;;;;;;;;;;5101093;28;20073;-66
2021/05/25 13:11:34;;;;;;;5.15;1.15;;;;;;;;;;5100076;28;20036;-66
2021/05/25 13:14:00;;;;;;;4.45;1.05;;;;;;;;;;5092375;28;20098;-66
2021/05/25 13:16:26;;;;;;;3.25;1.38;;;;;;;;;;5104410;28;20124;-65
2021/05/25 13:18:52;;;;;;;3.47;1.00;;;;;;;;;;5092666;28;20478;-66
2021/05/25 13:21:21;;;;;;;3.20;0.90;;;;;;;;;;5100406;28;20036;-66
2021/05/25 13:23:56;;;;;;;3.20;0.70;;;;;;;;;;5111658;28;20027;-66
2021/05/25 13:26:39;;;;;;;2.85;0.73;;;;;;;;;;5111281;28;20042;-66
2021/05/25 13:29:10;;;;;;;3.42;1.10;;;;;;;;;;5111020;28;20035;-66
2021/05/25 13:31:39;;;;;;;6.20;1.30;;;;;;;;;;5111369;28;20032;-65
2021/05/25 13:34:05;;;;;;;3.40;1.40;;;;;;;;;;5110745;28;20036;-66
2021/05/25 13:36:32;;;;;;;4.72;1.25;;;;;;;;;;5110899;28;20380;-66
2021/05/25 13:38:57;;;;;;;7.80;1.45;;;;;;;;;;5110769;28;20034;-66
2021/05/25 13:41:22;;;;;;;4.07;1.40;;;;;;;;;;5110973;28;20380;-65
2021/05/25 13:43:49;;;;;;;5.57;1.45;;;;;;;;;;5111479;28;20020;-65
2021/05/25 13:46:15;;;;;;;5.40;1.10;;;;;;;;;;5111571;28;20044;-65
2021/05/25 13:48:40;;;;;;;2.58;1.15;;;;;;;;;;5106012;28;20039;-65
2021/05/25 13:51:06;;;;;;;3.78;1.15;;;;;;;;;;5107414;28;20027;-66
2021/05/25 13:53:32;;;;;;;5.95;1.60;;;;;;;;;;5098552;28;20369;-65
2021/05/25 13:55:59;;;;;;;4.95;1.42;;;;;;;;;;5099331;28;20407;-65
2021/05/25 13:58:27;;;;;;;3.20;1.30;;;;;;;;;;5107132;28;20438;-65
2021/05/25 14:03:35;;;;;;;2.17;0.93;;;;;;;;;;5089045;28;20040;-66
2021/05/25 14:06:01;;;;;;;2.72;0.90;;;;;;;;;;5105214;28;20453;-65
2021/05/25 14:08:29;;;;;;;5.35;1.10;;;;;;;;;;5098100;28;20109;-66
2021/05/25 14:10:54;;;;;;;2.70;1.10;;;;;;;;;;5091839;28;20451;-65
2021/05/25 14:13:19;;;;;;;4.32;0.98;;;;;;;;;;5106215;28;20039;-65
2021/05/25 14:15:44;;;;;;;2.67;0.82;;;;;;;;;;5106765;28;20039;-65
2021/05/25 14:18:10;;;;;;;5.60;1.20;;;;;;;;;;5103677;28;20019;-66
2021/05/25 14:20:36;;;;;;;5.05;0.98;;;;;;;;;;5103233;28;20562;-65
2021/05/25 14:23:02;;;;;;;8.57;2.17;;;;;;;;;;5098000;28;20059;-65
2021/05/25 14:25:28;;;;;;;9.25;1.50;;;;;;;;;;5096764;28;20414;-65
2021/05/25 14:27:53;;;;;;;2.28;0.80;;;;;;;;;;5089502;28;20043;-65
2021/05/25 14:30:19;;;;;;;2.28;1.02;;;;;;;;;;5091043;28;20044;-65
2021/05/25 14:32:44;;;;;;;4.95;1.52;;;;;;;;;;5103546;28;20034;-64
2021/05/25 14:35:10;;;;;;;3.60;1.52;;;;;;;;;;5104773;28;20092;-64
2021/05/25 14:37:35;;;;;;;3.00;1.00;;;;;;;;;;5100406;28;20556;-65
2021/05/25 14:40:00;;;;;;;2.88;1.05;;;;;;;;;;5093930;28;20126;-65
2021/05/25 14:42:26;;;;;;;4.57;1.10;;;;;;;;;;5100276;28;20110;-65
2021/05/25 14:44:51;;;;;;;3.03;1.33;;;;;;;;;;5088634;28;20093;-65
2021/05/25 14:47:16;;;;;;;3.22;1.10;;;;;;;;;;5103568;28;20110;-65
2021/05/25 14:49:42;;;;;;;6.00;1.20;;;;;;;;;;5104507;28;20450;-65